sensor_id;sensor_type;location;lat;lon;timestamp;temperature;humidity
9975;DHT22;5028;50.974;4.968;2022-12-07T00:00:01;4.80;99.90
9975;DHT22;5028;50.974;4.968;2022-12-07T00:02:30;4.80;99.90
9975;DHT22;5028;50.974;4.968;2022-12-07T00:05:05;4.70;99.90
9975;DHT22;5028;50.974;4.968;2022-12-07T00:07:34;4.70;99.90
9975;DHT22;5028;50.974;4.968;2022-12-07T00:10:08;4.70;99.90
9975;DHT22;5028;50.974;4.968;2022-12-07T00:12:38;4.60;99.90
9975;DHT22;5028;50.974;4.968;2022-12-07T00:15:12;4.70;99.90
9975;DHT22;5028;50.974;4.968;2022-12-07T00:17:40;4.60;99.90
9975;DHT22;5028;50.974;4.968;2022-12-07T00:20:15;4.60;99.90
9975;DHT22;5028;50.974;4.968;2022-12-07T00:22:43;4.70;99.90
9975;DHT22;5028;50.974;4.968;2022-12-07T00:25:18;4.70;99.90
9975;DHT22;5028;50.974;4.968;2022-12-07T00:27:47;4.70;99.90
9975;DHT22;5028;50.974;4.968;2022-12-07T00:30:22;4.70;99.90
9975;DHT22;5028;50.974;4.968;2022-12-07T00:32:51;4.70;99.90
9975;DHT22;5028;50.974;4.968;2022-12-07T00:35:26;4.70;99.90
9975;DHT22;5028;50.974;4.968;2022-12-07T00:37:54;4.80;99.90
9975;DHT22;5028;50.974;4.968;2022-12-07T00:40:29;4.80;99.90
9975;DHT22;5028;50.974;4.968;2022-12-07T00:42:58;4.80;99.90
9975;DHT22;5028;50.974;4.968;2022-12-07T00:45:33;4.80;99.90
9975;DHT22;5028;50.974;4.968;2022-12-07T00:48:01;4.90;99.90
9975;DHT22;5028;50.974;4.968;2022-12-07T00:50:36;4.80;99.90
9975;DHT22;5028;50.974;4.968;2022-12-07T00:53:10;4.80;99.90
9975;DHT22;5028;50.974;4.968;2022-12-07T00:55:45;4.90;99.90
9975;DHT22;5028;50.974;4.968;2022-12-07T00:58:15;4.90;99.90
9975;DHT22;5028;50.974;4.968;2022-12-07T01:00:50;4.90;99.90
9975;DHT22;5028;50.974;4.968;2022-12-07T01:03:18;4.80;99.90
9975;DHT22;5028;50.974;4.968;2022-12-07T01:05:54;4.80;99.90
9975;DHT22;5028;50.974;4.968;2022-12-07T01:08:24;4.80;99.90
9975;DHT22;5028;50.974;4.968;2022-12-07T01:11:00;4.90;99.90
9975;DHT22;5028;50.974;4.968;2022-12-07T01:13:30;4.90;99.90
9975;DHT22;5028;50.974;4.968;2022-12-07T01:16:06;4.90;99.90
9975;DHT22;5028;50.974;4.968;2022-12-07T01:18:35;4.90;99.90
9975;DHT22;5028;50.974;4.968;2022-12-07T01:21:11;4.90;99.90
9975;DHT22;5028;50.974;4.968;2022-12-07T01:23:40;4.90;99.90
9975;DHT22;5028;50.974;4.968;2022-12-07T01:26:17;4.90;99.90
9975;DHT22;5028;50.974;4.968;2022-12-07T01:28:48;4.90;99.90
9975;DHT22;5028;50.974;4.968;2022-12-07T01:31:27;4.90;99.90
9975;DHT22;5028;50.974;4.968;2022-12-07T01:33:57;4.90;99.90
9975;DHT22;5028;50.974;4.968;2022-12-07T01:36:34;4.80;99.90
9975;DHT22;5028;50.974;4.968;2022-12-07T01:39:04;4.80;99.90
9975;DHT22;5028;50.974;4.968;2022-12-07T01:41:40;4.70;99.90
9975;DHT22;5028;50.974;4.968;2022-12-07T01:44:15;4.70;99.90
9975;DHT22;5028;50.974;4.968;2022-12-07T01:46:51;4.70;99.90
9975;DHT22;5028;50.974;4.968;2022-12-07T01:49:25;4.60;99.90
9975;DHT22;5028;50.974;4.968;2022-12-07T01:52:13;4.60;99.90
9975;DHT22;5028;50.974;4.968;2022-12-07T01:54:45;4.60;99.90
9975;DHT22;5028;50.974;4.968;2022-12-07T01:57:21;4.60;99.90
9975;DHT22;5028;50.974;4.968;2022-12-07T01:59:51;4.70;99.90
9975;DHT22;5028;50.974;4.968;2022-12-07T02:02:30;4.70;99.90
9975;DHT22;5028;50.974;4.968;2022-12-07T02:05:00;4.70;99.90
9975;DHT22;5028;50.974;4.968;2022-12-07T02:07:42;4.70;99.90
9975;DHT22;5028;50.974;4.968;2022-12-07T02:10:16;4.70;99.90
9975;DHT22;5028;50.974;4.968;2022-12-07T02:12:55;4.60;99.90
9975;DHT22;5028;50.974;4.968;2022-12-07T02:15:33;4.60;99.90
9975;DHT22;5028;50.974;4.968;2022-12-07T02:18:17;4.60;99.90
9975;DHT22;5028;50.974;4.968;2022-12-07T02:20:55;4.60;99.90
9975;DHT22;5028;50.974;4.968;2022-12-07T02:29:53;4.60;99.90
9975;DHT22;5028;50.974;4.968;2022-12-07T02:32:41;4.60;99.90
9975;DHT22;5028;50.974;4.968;2022-12-07T02:35:13;4.60;99.90
9975;DHT22;5028;50.974;4.968;2022-12-07T02:37:59;4.60;99.90
9975;DHT22;5028;50.974;4.968;2022-12-07T02:40:34;4.60;99.90
9975;DHT22;5028;50.974;4.968;2022-12-07T02:43:16;4.60;99.90
9975;DHT22;5028;50.974;4.968;2022-12-07T02:45:48;4.60;99.90
9975;DHT22;5028;50.974;4.968;2022-12-07T02:48:26;4.60;99.90
9975;DHT22;5028;50.974;4.968;2022-12-07T02:50:55;4.70;99.90
9975;DHT22;5028;50.974;4.968;2022-12-07T02:53:32;4.70;99.90
9975;DHT22;5028;50.974;4.968;2022-12-07T02:56:05;4.70;99.90
9975;DHT22;5028;50.974;4.968;2022-12-07T02:58:50;4.70;99.90
9975;DHT22;5028;50.974;4.968;2022-12-07T03:01:30;4.70;99.90
9975;DHT22;5028;50.974;4.968;2022-12-07T03:04:22;4.70;99.90
9975;DHT22;5028;50.974;4.968;2022-12-07T03:07:11;4.70;99.90
9975;DHT22;5028;50.974;4.968;2022-12-07T03:09:52;4.60;99.90
9975;DHT22;5028;50.974;4.968;2022-12-07T03:12:27;4.60;99.90
9975;DHT22;5028;50.974;4.968;2022-12-07T03:15:07;4.50;99.90
9975;DHT22;5028;50.974;4.968;2022-12-07T03:17:40;4.50;99.90
9975;DHT22;5028;50.974;4.968;2022-12-07T03:20:20;4.50;99.90
9975;DHT22;5028;50.974;4.968;2022-12-07T03:22:51;4.40;99.90
9975;DHT22;5028;50.974;4.968;2022-12-07T03:25:28;4.40;99.90
9975;DHT22;5028;50.974;4.968;2022-12-07T03:27:59;4.40;99.90
9975;DHT22;5028;50.974;4.968;2022-12-07T03:30:42;4.40;99.90
9975;DHT22;5028;50.974;4.968;2022-12-07T03:33:17;4.40;99.90
9975;DHT22;5028;50.974;4.968;2022-12-07T03:36:00;4.40;99.90
9975;DHT22;5028;50.974;4.968;2022-12-07T03:38:37;4.40;99.90
9975;DHT22;5028;50.974;4.968;2022-12-07T03:41:18;4.40;99.90
9975;DHT22;5028;50.974;4.968;2022-12-07T03:43:47;4.40;99.90
9975;DHT22;5028;50.974;4.968;2022-12-07T03:46:30;4.40;99.90
9975;DHT22;5028;50.974;4.968;2022-12-07T03:49:08;4.40;99.90
9975;DHT22;5028;50.974;4.968;2022-12-07T03:51:51;4.40;99.90
9975;DHT22;5028;50.974;4.968;2022-12-07T03:54:26;4.30;99.90
9975;DHT22;5028;50.974;4.968;2022-12-07T03:57:04;4.30;99.90
9975;DHT22;5028;50.974;4.968;2022-12-07T03:59:33;4.30;99.90
9975;DHT22;5028;50.974;4.968;2022-12-07T04:02:11;4.20;99.90
9975;DHT22;5028;50.974;4.968;2022-12-07T04:04:48;4.20;99.90
9975;DHT22;5028;50.974;4.968;2022-12-07T04:07:23;4.20;99.90
9975;DHT22;5028;50.974;4.968;2022-12-07T04:09:52;4.20;99.90
9975;DHT22;5028;50.974;4.968;2022-12-07T04:12:29;4.20;99.90
9975;DHT22;5028;50.974;4.968;2022-12-07T04:14:57;4.20;99.90
9975;DHT22;5028;50.974;4.968;2022-12-07T04:17:32;4.20;99.90
9975;DHT22;5028;50.974;4.968;2022-12-07T04:20:03;4.20;99.90
9975;DHT22;5028;50.974;4.968;2022-12-07T04:22:38;4.10;99.90
9975;DHT22;5028;50.974;4.968;2022-12-07T04:25:07;4.10;99.90
9975;DHT22;5028;50.974;4.968;2022-12-07T04:27:42;4.10;99.90
9975;DHT22;5028;50.974;4.968;2022-12-07T04:30:11;4.00;99.90
9975;DHT22;5028;50.974;4.968;2022-12-07T04:32:46;3.90;99.90
9975;DHT22;5028;50.974;4.968;2022-12-07T04:35:16;3.90;99.90
9975;DHT22;5028;50.974;4.968;2022-12-07T04:37:51;3.90;99.90
9975;DHT22;5028;50.974;4.968;2022-12-07T04:40:20;3.90;99.90
9975;DHT22;5028;50.974;4.968;2022-12-07T04:42:54;3.90;99.90
9975;DHT22;5028;50.974;4.968;2022-12-07T04:45:23;3.90;99.90
9975;DHT22;5028;50.974;4.968;2022-12-07T04:47:57;3.90;99.90
9975;DHT22;5028;50.974;4.968;2022-12-07T04:50:27;3.90;99.90
9975;DHT22;5028;50.974;4.968;2022-12-07T04:53:04;3.90;99.90
9975;DHT22;5028;50.974;4.968;2022-12-07T04:55:32;3.90;99.90
9975;DHT22;5028;50.974;4.968;2022-12-07T04:58:07;3.80;99.90
9975;DHT22;5028;50.974;4.968;2022-12-07T05:00:36;3.80;99.90
9975;DHT22;5028;50.974;4.968;2022-12-07T05:03:11;3.80;99.90
9975;DHT22;5028;50.974;4.968;2022-12-07T05:05:41;3.80;99.90
9975;DHT22;5028;50.974;4.968;2022-12-07T05:08:23;3.90;99.90
9975;DHT22;5028;50.974;4.968;2022-12-07T05:10:52;3.70;99.90
9975;DHT22;5028;50.974;4.968;2022-12-07T05:13:26;3.80;99.90
9975;DHT22;5028;50.974;4.968;2022-12-07T05:15:55;3.80;99.90
9975;DHT22;5028;50.974;4.968;2022-12-07T05:18:31;3.80;99.90
9975;DHT22;5028;50.974;4.968;2022-12-07T05:21:00;3.80;99.90
9975;DHT22;5028;50.974;4.968;2022-12-07T05:23:35;3.90;99.90
9975;DHT22;5028;50.974;4.968;2022-12-07T05:26:04;3.90;99.90
9975;DHT22;5028;50.974;4.968;2022-12-07T05:28:38;3.90;99.90
9975;DHT22;5028;50.974;4.968;2022-12-07T05:31:07;4.00;99.90
9975;DHT22;5028;50.974;4.968;2022-12-07T05:33:42;4.00;99.90
9975;DHT22;5028;50.974;4.968;2022-12-07T05:36:12;4.00;99.90
9975;DHT22;5028;50.974;4.968;2022-12-07T05:38:46;4.00;99.90
9975;DHT22;5028;50.974;4.968;2022-12-07T05:41:17;4.10;99.90
9975;DHT22;5028;50.974;4.968;2022-12-07T05:44:09;4.10;99.90
9975;DHT22;5028;50.974;4.968;2022-12-07T05:46:38;4.00;99.90
9975;DHT22;5028;50.974;4.968;2022-12-07T05:49:12;4.10;99.90
9975;DHT22;5028;50.974;4.968;2022-12-07T05:51:42;4.20;99.90
9975;DHT22;5028;50.974;4.968;2022-12-07T05:54:17;4.20;99.90
9975;DHT22;5028;50.974;4.968;2022-12-07T05:56:46;4.20;99.90
9975;DHT22;5028;50.974;4.968;2022-12-07T05:59:21;4.10;99.90
9975;DHT22;5028;50.974;4.968;2022-12-07T06:01:53;4.20;99.90
9975;DHT22;5028;50.974;4.968;2022-12-07T06:04:37;4.10;99.90
9975;DHT22;5028;50.974;4.968;2022-12-07T06:07:20;4.20;99.90
9975;DHT22;5028;50.974;4.968;2022-12-07T06:09:54;4.20;99.90
9975;DHT22;5028;50.974;4.968;2022-12-07T06:12:30;4.20;99.90
9975;DHT22;5028;50.974;4.968;2022-12-07T06:15:06;4.20;99.90
9975;DHT22;5028;50.974;4.968;2022-12-07T06:17:41;4.20;99.90
9975;DHT22;5028;50.974;4.968;2022-12-07T06:20:10;4.20;99.90
9975;DHT22;5028;50.974;4.968;2022-12-07T06:22:40;4.20;99.90
9975;DHT22;5028;50.974;4.968;2022-12-07T06:25:15;4.20;99.90
9975;DHT22;5028;50.974;4.968;2022-12-07T06:27:43;4.10;99.90
9975;DHT22;5028;50.974;4.968;2022-12-07T06:30:18;4.20;99.90
9975;DHT22;5028;50.974;4.968;2022-12-07T06:32:47;4.10;99.90
9975;DHT22;5028;50.974;4.968;2022-12-07T06:35:22;4.10;99.90
9975;DHT22;5028;50.974;4.968;2022-12-07T06:37:59;4.10;99.90
9975;DHT22;5028;50.974;4.968;2022-12-07T06:40:27;4.10;99.90
9975;DHT22;5028;50.974;4.968;2022-12-07T06:43:02;4.10;99.90
9975;DHT22;5028;50.974;4.968;2022-12-07T06:45:31;4.10;99.90
9975;DHT22;5028;50.974;4.968;2022-12-07T06:48:06;4.00;99.90
9975;DHT22;5028;50.974;4.968;2022-12-07T06:50:35;4.00;99.90
9975;DHT22;5028;50.974;4.968;2022-12-07T06:53:18;3.90;99.90
9975;DHT22;5028;50.974;4.968;2022-12-07T06:55:47;4.00;99.90
9975;DHT22;5028;50.974;4.968;2022-12-07T06:58:22;4.00;99.90
9975;DHT22;5028;50.974;4.968;2022-12-07T07:00:50;4.00;99.90
9975;DHT22;5028;50.974;4.968;2022-12-07T07:03:25;4.00;99.90
9975;DHT22;5028;50.974;4.968;2022-12-07T07:06:00;4.00;99.90
9975;DHT22;5028;50.974;4.968;2022-12-07T07:08:37;4.00;99.90
9975;DHT22;5028;50.974;4.968;2022-12-07T07:11:12;4.00;99.90
9975;DHT22;5028;50.974;4.968;2022-12-07T07:13:46;4.00;99.90
9975;DHT22;5028;50.974;4.968;2022-12-07T07:16:19;4.00;99.90
9975;DHT22;5028;50.974;4.968;2022-12-07T07:18:55;4.00;99.90
9975;DHT22;5028;50.974;4.968;2022-12-07T07:21:24;3.90;99.90
9975;DHT22;5028;50.974;4.968;2022-12-07T07:24:01;3.90;99.90
9975;DHT22;5028;50.974;4.968;2022-12-07T07:26:29;3.90;99.90
9975;DHT22;5028;50.974;4.968;2022-12-07T07:29:04;3.80;99.90
9975;DHT22;5028;50.974;4.968;2022-12-07T07:31:33;3.80;99.90
9975;DHT22;5028;50.974;4.968;2022-12-07T07:34:09;3.80;99.90
9975;DHT22;5028;50.974;4.968;2022-12-07T07:36:37;3.70;99.90
9975;DHT22;5028;50.974;4.968;2022-12-07T07:39:13;3.70;99.90
9975;DHT22;5028;50.974;4.968;2022-12-07T07:41:41;3.70;99.90
9975;DHT22;5028;50.974;4.968;2022-12-07T07:44:16;3.70;99.90
9975;DHT22;5028;50.974;4.968;2022-12-07T07:46:45;3.70;99.90
9975;DHT22;5028;50.974;4.968;2022-12-07T07:49:19;3.60;99.90
9975;DHT22;5028;50.974;4.968;2022-12-07T07:51:48;3.60;99.90
9975;DHT22;5028;50.974;4.968;2022-12-07T07:54:24;3.60;99.90
9975;DHT22;5028;50.974;4.968;2022-12-07T07:56:52;3.60;99.90
9975;DHT22;5028;50.974;4.968;2022-12-07T07:59:28;3.60;99.90
9975;DHT22;5028;50.974;4.968;2022-12-07T08:01:56;3.60;99.90
9975;DHT22;5028;50.974;4.968;2022-12-07T08:04:40;3.70;99.90
9975;DHT22;5028;50.974;4.968;2022-12-07T08:07:21;3.50;99.90
9975;DHT22;5028;50.974;4.968;2022-12-07T08:09:58;3.50;99.90
9975;DHT22;5028;50.974;4.968;2022-12-07T08:12:27;3.50;99.90
9975;DHT22;5028;50.974;4.968;2022-12-07T08:15:02;3.50;99.90
9975;DHT22;5028;50.974;4.968;2022-12-07T08:17:30;3.40;99.90
9975;DHT22;5028;50.974;4.968;2022-12-07T08:20:06;3.40;99.90
9975;DHT22;5028;50.974;4.968;2022-12-07T08:22:35;3.40;99.90
9975;DHT22;5028;50.974;4.968;2022-12-07T08:25:11;3.40;99.90
9975;DHT22;5028;50.974;4.968;2022-12-07T08:27:40;3.40;99.90
9975;DHT22;5028;50.974;4.968;2022-12-07T08:30:16;3.40;99.90
9975;DHT22;5028;50.974;4.968;2022-12-07T08:32:45;3.50;99.90
9975;DHT22;5028;50.974;4.968;2022-12-07T08:35:21;3.60;99.90
9975;DHT22;5028;50.974;4.968;2022-12-07T08:37:49;3.70;99.90
9975;DHT22;5028;50.974;4.968;2022-12-07T08:40:25;3.90;99.90
9975;DHT22;5028;50.974;4.968;2022-12-07T08:42:53;4.00;99.90
9975;DHT22;5028;50.974;4.968;2022-12-07T08:45:28;4.10;99.90
9975;DHT22;5028;50.974;4.968;2022-12-07T08:48:04;4.20;99.90
9975;DHT22;5028;50.974;4.968;2022-12-07T08:50:40;4.20;99.90
9975;DHT22;5028;50.974;4.968;2022-12-07T08:53:15;4.30;99.90
9975;DHT22;5028;50.974;4.968;2022-12-07T08:55:52;4.30;99.90
9975;DHT22;5028;50.974;4.968;2022-12-07T08:58:20;4.30;99.90
9975;DHT22;5028;50.974;4.968;2022-12-07T09:00:55;4.30;99.90
9975;DHT22;5028;50.974;4.968;2022-12-07T09:03:24;4.30;99.90
9975;DHT22;5028;50.974;4.968;2022-12-07T09:06:05;4.40;99.90
9975;DHT22;5028;50.974;4.968;2022-12-07T09:08:51;4.30;99.90
9975;DHT22;5028;50.974;4.968;2022-12-07T09:11:29;4.30;99.90
9975;DHT22;5028;50.974;4.968;2022-12-07T09:13:58;4.30;99.90
9975;DHT22;5028;50.974;4.968;2022-12-07T09:16:32;4.30;99.90
9975;DHT22;5028;50.974;4.968;2022-12-07T09:19:01;4.30;99.90
9975;DHT22;5028;50.974;4.968;2022-12-07T09:21:36;4.30;99.90
9975;DHT22;5028;50.974;4.968;2022-12-07T09:24:05;4.40;99.90
9975;DHT22;5028;50.974;4.968;2022-12-07T09:26:42;4.50;99.90
9975;DHT22;5028;50.974;4.968;2022-12-07T09:29:11;4.60;99.90
9975;DHT22;5028;50.974;4.968;2022-12-07T09:31:47;4.60;99.90
9975;DHT22;5028;50.974;4.968;2022-12-07T09:34:15;4.70;99.90
9975;DHT22;5028;50.974;4.968;2022-12-07T09:36:51;4.70;99.90
9975;DHT22;5028;50.974;4.968;2022-12-07T09:39:19;4.80;99.90
9975;DHT22;5028;50.974;4.968;2022-12-07T09:41:58;4.80;99.90
9975;DHT22;5028;50.974;4.968;2022-12-07T09:44:27;4.90;99.90
9975;DHT22;5028;50.974;4.968;2022-12-07T09:47:02;4.90;99.90
9975;DHT22;5028;50.974;4.968;2022-12-07T09:49:32;5.00;99.90
9975;DHT22;5028;50.974;4.968;2022-12-07T09:52:19;5.00;99.90
9975;DHT22;5028;50.974;4.968;2022-12-07T09:54:50;5.00;99.90
9975;DHT22;5028;50.974;4.968;2022-12-07T09:57:29;5.10;99.90
9975;DHT22;5028;50.974;4.968;2022-12-07T10:00:03;5.20;99.90
9975;DHT22;5028;50.974;4.968;2022-12-07T10:02:40;5.30;99.90
9975;DHT22;5028;50.974;4.968;2022-12-07T10:05:13;5.30;99.90
9975;DHT22;5028;50.974;4.968;2022-12-07T10:07:57;5.30;99.90
9975;DHT22;5028;50.974;4.968;2022-12-07T10:10:29;5.30;99.90
9975;DHT22;5028;50.974;4.968;2022-12-07T10:13:08;5.40;99.90
9975;DHT22;5028;50.974;4.968;2022-12-07T10:15:49;5.40;99.90
9975;DHT22;5028;50.974;4.968;2022-12-07T10:18:28;5.40;99.90
9975;DHT22;5028;50.974;4.968;2022-12-07T10:21:10;5.40;99.90
9975;DHT22;5028;50.974;4.968;2022-12-07T10:23:40;5.40;99.90
9975;DHT22;5028;50.974;4.968;2022-12-07T10:26:28;5.40;99.90
9975;DHT22;5028;50.974;4.968;2022-12-07T10:29:03;5.30;99.90
9975;DHT22;5028;50.974;4.968;2022-12-07T10:31:39;5.30;99.90
9975;DHT22;5028;50.974;4.968;2022-12-07T10:34:21;5.40;99.90
9975;DHT22;5028;50.974;4.968;2022-12-07T10:37:23;5.40;99.90
9975;DHT22;5028;50.974;4.968;2022-12-07T10:39:56;5.50;99.90
9975;DHT22;5028;50.974;4.968;2022-12-07T10:42:32;5.60;99.90
9975;DHT22;5028;50.974;4.968;2022-12-07T10:45:09;5.60;99.90
9975;DHT22;5028;50.974;4.968;2022-12-07T10:47:52;5.70;99.90
9975;DHT22;5028;50.974;4.968;2022-12-07T10:50:34;5.70;99.90
9975;DHT22;5028;50.974;4.968;2022-12-07T10:53:35;5.80;99.90
9975;DHT22;5028;50.974;4.968;2022-12-07T10:59:39;5.80;99.90
9975;DHT22;5028;50.974;4.968;2022-12-07T11:02:25;5.80;99.90
9975;DHT22;5028;50.974;4.968;2022-12-07T11:05:15;5.90;99.90
9975;DHT22;5028;50.974;4.968;2022-12-07T11:08:03;5.90;99.90
9975;DHT22;5028;50.974;4.968;2022-12-07T11:10:48;6.00;99.90
9975;DHT22;5028;50.974;4.968;2022-12-07T11:13:25;6.10;99.90
9975;DHT22;5028;50.974;4.968;2022-12-07T11:16:16;6.10;99.90
9975;DHT22;5028;50.974;4.968;2022-12-07T11:19:00;6.20;99.90
9975;DHT22;5028;50.974;4.968;2022-12-07T11:21:44;6.30;99.90
9975;DHT22;5028;50.974;4.968;2022-12-07T11:24:16;6.50;99.90
9975;DHT22;5028;50.974;4.968;2022-12-07T11:27:05;6.50;99.90
9975;DHT22;5028;50.974;4.968;2022-12-07T11:29:57;6.50;99.90
9975;DHT22;5028;50.974;4.968;2022-12-07T11:32:52;6.60;99.90
9975;DHT22;5028;50.974;4.968;2022-12-07T11:35:33;6.50;99.90
9975;DHT22;5028;50.974;4.968;2022-12-07T11:38:13;6.50;99.90
9975;DHT22;5028;50.974;4.968;2022-12-07T11:40:49;6.50;99.90
9975;DHT22;5028;50.974;4.968;2022-12-07T11:43:27;6.40;99.90
9975;DHT22;5028;50.974;4.968;2022-12-07T11:45:59;6.50;99.90
9975;DHT22;5028;50.974;4.968;2022-12-07T11:48:40;6.60;99.90
9975;DHT22;5028;50.974;4.968;2022-12-07T11:51:12;6.70;99.90
9975;DHT22;5028;50.974;4.968;2022-12-07T11:53:51;6.70;99.90
9975;DHT22;5028;50.974;4.968;2022-12-07T11:56:23;6.60;99.90
9975;DHT22;5028;50.974;4.968;2022-12-07T11:59:04;6.70;99.90
9975;DHT22;5028;50.974;4.968;2022-12-07T12:01:45;6.70;99.90
9975;DHT22;5028;50.974;4.968;2022-12-07T12:04:31;6.70;99.90
9975;DHT22;5028;50.974;4.968;2022-12-07T12:07:21;6.60;99.90
9975;DHT22;5028;50.974;4.968;2022-12-07T12:10:20;6.60;99.90
9975;DHT22;5028;50.974;4.968;2022-12-07T12:13:15;6.50;99.90
9975;DHT22;5028;50.974;4.968;2022-12-07T12:16:49;6.50;99.90
9975;DHT22;5028;50.974;4.968;2022-12-07T12:19:26;6.50;99.90
9975;DHT22;5028;50.974;4.968;2022-12-07T12:22:10;6.40;99.90
9975;DHT22;5028;50.974;4.968;2022-12-07T12:24:43;6.50;99.90
9975;DHT22;5028;50.974;4.968;2022-12-07T12:27:23;6.40;99.90
9975;DHT22;5028;50.974;4.968;2022-12-07T12:29:54;6.40;99.90
9975;DHT22;5028;50.974;4.968;2022-12-07T12:32:36;6.40;99.90
9975;DHT22;5028;50.974;4.968;2022-12-07T12:35:28;6.40;99.90
9975;DHT22;5028;50.974;4.968;2022-12-07T12:38:27;6.40;99.90
9975;DHT22;5028;50.974;4.968;2022-12-07T12:40:57;6.50;99.90
9975;DHT22;5028;50.974;4.968;2022-12-07T12:43:57;6.50;99.90
9975;DHT22;5028;50.974;4.968;2022-12-07T12:46:46;6.50;99.90
9975;DHT22;5028;50.974;4.968;2022-12-07T12:49:37;6.50;99.90
9975;DHT22;5028;50.974;4.968;2022-12-07T12:58:39;6.70;99.90
9975;DHT22;5028;50.974;4.968;2022-12-07T13:01:39;6.70;99.90
9975;DHT22;5028;50.974;4.968;2022-12-07T13:04:24;6.70;99.90
9975;DHT22;5028;50.974;4.968;2022-12-07T13:07:01;6.70;99.90
9975;DHT22;5028;50.974;4.968;2022-12-07T13:09:36;6.70;99.90
9975;DHT22;5028;50.974;4.968;2022-12-07T13:12:15;6.80;99.90
9975;DHT22;5028;50.974;4.968;2022-12-07T13:14:57;6.80;99.90
9975;DHT22;5028;50.974;4.968;2022-12-07T13:17:58;6.80;99.90
9975;DHT22;5028;50.974;4.968;2022-12-07T13:20:48;6.80;99.90
9975;DHT22;5028;50.974;4.968;2022-12-07T13:23:32;6.70;99.90
9975;DHT22;5028;50.974;4.968;2022-12-07T13:26:09;6.70;99.90
9975;DHT22;5028;50.974;4.968;2022-12-07T13:28:48;6.70;99.90
9975;DHT22;5028;50.974;4.968;2022-12-07T13:31:31;6.70;99.90
9975;DHT22;5028;50.974;4.968;2022-12-07T13:34:28;6.70;99.90
9975;DHT22;5028;50.974;4.968;2022-12-07T13:36:57;6.70;99.90
9975;DHT22;5028;50.974;4.968;2022-12-07T13:39:34;6.70;99.90
9975;DHT22;5028;50.974;4.968;2022-12-07T13:42:11;6.70;99.90
9975;DHT22;5028;50.974;4.968;2022-12-07T13:44:51;6.60;99.90
9975;DHT22;5028;50.974;4.968;2022-12-07T13:47:31;6.60;99.90
9975;DHT22;5028;50.974;4.968;2022-12-07T13:50:23;6.50;99.90
9975;DHT22;5028;50.974;4.968;2022-12-07T13:52:55;6.40;99.90
9975;DHT22;5028;50.974;4.968;2022-12-07T13:55:30;6.30;99.90
9975;DHT22;5028;50.974;4.968;2022-12-07T13:57:58;6.30;99.90
9975;DHT22;5028;50.974;4.968;2022-12-07T14:00:34;6.30;99.90
9975;DHT22;5028;50.974;4.968;2022-12-07T14:06:07;6.30;99.90
9975;DHT22;5028;50.974;4.968;2022-12-07T14:08:40;6.30;99.90
9975;DHT22;5028;50.974;4.968;2022-12-07T14:11:21;6.30;99.90
9975;DHT22;5028;50.974;4.968;2022-12-07T14:13:56;6.30;99.90
9975;DHT22;5028;50.974;4.968;2022-12-07T14:16:33;6.30;99.90
9975;DHT22;5028;50.974;4.968;2022-12-07T14:19:06;6.30;99.90
9975;DHT22;5028;50.974;4.968;2022-12-07T14:22:06;6.30;99.90
9975;DHT22;5028;50.974;4.968;2022-12-07T14:24:42;6.30;99.90
9975;DHT22;5028;50.974;4.968;2022-12-07T14:27:18;6.30;99.90
9975;DHT22;5028;50.974;4.968;2022-12-07T14:29:47;6.30;99.90
9975;DHT22;5028;50.974;4.968;2022-12-07T14:32:25;6.20;99.90
9975;DHT22;5028;50.974;4.968;2022-12-07T14:34:59;6.20;99.90
9975;DHT22;5028;50.974;4.968;2022-12-07T14:37:35;6.20;99.90
9975;DHT22;5028;50.974;4.968;2022-12-07T14:40:05;6.20;99.90
9975;DHT22;5028;50.974;4.968;2022-12-07T14:42:34;6.20;99.90
9975;DHT22;5028;50.974;4.968;2022-12-07T14:45:14;6.20;99.90
9975;DHT22;5028;50.974;4.968;2022-12-07T14:47:44;6.20;99.90
9975;DHT22;5028;50.974;4.968;2022-12-07T14:50:44;6.10;99.90
9975;DHT22;5028;50.974;4.968;2022-12-07T14:53:41;6.10;99.90
9975;DHT22;5028;50.974;4.968;2022-12-07T14:56:15;6.10;99.90
9975;DHT22;5028;50.974;4.968;2022-12-07T14:58:51;6.00;99.90
9975;DHT22;5028;50.974;4.968;2022-12-07T15:01:19;5.90;99.90
9975;DHT22;5028;50.974;4.968;2022-12-07T15:03:48;5.80;99.90
9975;DHT22;5028;50.974;4.968;2022-12-07T15:06:24;5.70;99.90
9975;DHT22;5028;50.974;4.968;2022-12-07T15:09:06;5.70;99.90
9975;DHT22;5028;50.974;4.968;2022-12-07T15:11:34;5.60;99.90
9975;DHT22;5028;50.974;4.968;2022-12-07T15:14:10;5.60;99.90
9975;DHT22;5028;50.974;4.968;2022-12-07T15:16:41;5.60;99.90
9975;DHT22;5028;50.974;4.968;2022-12-07T15:19:34;5.60;99.90
9975;DHT22;5028;50.974;4.968;2022-12-07T15:22:04;5.60;99.90
9975;DHT22;5028;50.974;4.968;2022-12-07T15:24:40;5.60;99.90
9975;DHT22;5028;50.974;4.968;2022-12-07T15:27:08;5.60;99.90
9975;DHT22;5028;50.974;4.968;2022-12-07T15:29:43;5.60;99.90
9975;DHT22;5028;50.974;4.968;2022-12-07T15:32:11;5.50;99.90
9975;DHT22;5028;50.974;4.968;2022-12-07T15:34:46;5.50;99.90
9975;DHT22;5028;50.974;4.968;2022-12-07T15:37:15;5.50;99.90
9975;DHT22;5028;50.974;4.968;2022-12-07T15:39:51;5.40;99.90
9975;DHT22;5028;50.974;4.968;2022-12-07T15:42:20;5.30;99.90
9975;DHT22;5028;50.974;4.968;2022-12-07T15:44:55;5.20;99.90
9975;DHT22;5028;50.974;4.968;2022-12-07T15:47:33;5.20;99.90
9975;DHT22;5028;50.974;4.968;2022-12-07T15:50:28;5.10;99.90
9975;DHT22;5028;50.974;4.968;2022-12-07T15:52:58;5.00;99.90
9975;DHT22;5028;50.974;4.968;2022-12-07T15:55:33;4.90;99.90
9975;DHT22;5028;50.974;4.968;2022-12-07T15:58:01;4.90;99.90
9975;DHT22;5028;50.974;4.968;2022-12-07T16:00:36;4.90;99.90
9975;DHT22;5028;50.974;4.968;2022-12-07T16:03:05;4.80;99.90
9975;DHT22;5028;50.974;4.968;2022-12-07T16:05:49;4.80;99.90
9975;DHT22;5028;50.974;4.968;2022-12-07T16:08:31;4.80;99.90
9975;DHT22;5028;50.974;4.968;2022-12-07T16:11:06;4.70;99.90
9975;DHT22;5028;50.974;4.968;2022-12-07T16:13:34;4.70;99.90
9975;DHT22;5028;50.974;4.968;2022-12-07T16:16:12;4.70;99.90
9975;DHT22;5028;50.974;4.968;2022-12-07T16:18:42;4.70;99.90
9975;DHT22;5028;50.974;4.968;2022-12-07T16:21:17;4.70;99.90
9975;DHT22;5028;50.974;4.968;2022-12-07T16:23:53;4.70;99.90
9975;DHT22;5028;50.974;4.968;2022-12-07T16:26:28;4.70;99.90
9975;DHT22;5028;50.974;4.968;2022-12-07T16:28:56;4.70;99.90
9975;DHT22;5028;50.974;4.968;2022-12-07T16:31:31;4.70;99.90
9975;DHT22;5028;50.974;4.968;2022-12-07T16:34:01;4.70;99.90
9975;DHT22;5028;50.974;4.968;2022-12-07T16:36:37;4.60;99.90
9975;DHT22;5028;50.974;4.968;2022-12-07T16:39:27;4.60;99.90
9975;DHT22;5028;50.974;4.968;2022-12-07T16:42:03;4.60;99.90
9975;DHT22;5028;50.974;4.968;2022-12-07T16:44:31;4.60;99.90
9975;DHT22;5028;50.974;4.968;2022-12-07T16:47:06;4.60;99.90
9975;DHT22;5028;50.974;4.968;2022-12-07T16:49:35;4.60;99.90
9975;DHT22;5028;50.974;4.968;2022-12-07T16:52:10;4.60;99.90
9975;DHT22;5028;50.974;4.968;2022-12-07T16:54:48;4.60;99.90
9975;DHT22;5028;50.974;4.968;2022-12-07T16:57:23;4.60;99.90
9975;DHT22;5028;50.974;4.968;2022-12-07T16:59:51;4.70;99.90
9975;DHT22;5028;50.974;4.968;2022-12-07T17:02:26;4.70;99.90
9975;DHT22;5028;50.974;4.968;2022-12-07T17:04:54;4.70;99.90
9975;DHT22;5028;50.974;4.968;2022-12-07T17:07:36;4.70;99.90
9975;DHT22;5028;50.974;4.968;2022-12-07T17:10:08;4.70;99.90
9975;DHT22;5028;50.974;4.968;2022-12-07T17:12:44;4.70;99.90
9975;DHT22;5028;50.974;4.968;2022-12-07T17:15:13;4.70;99.90
9975;DHT22;5028;50.974;4.968;2022-12-07T17:17:53;4.70;99.90
9975;DHT22;5028;50.974;4.968;2022-12-07T17:20:24;4.70;99.90
9975;DHT22;5028;50.974;4.968;2022-12-07T17:23:00;4.70;99.90
9975;DHT22;5028;50.974;4.968;2022-12-07T17:25:30;4.70;99.90
9975;DHT22;5028;50.974;4.968;2022-12-07T17:28:05;4.70;99.90
9975;DHT22;5028;50.974;4.968;2022-12-07T17:30:33;4.70;99.90
9975;DHT22;5028;50.974;4.968;2022-12-07T17:33:08;4.70;99.90